Saturday, February 28, 2015
20:47 UTC
  |  Log In   |  Register Free
Airport Search:

South Alabama Regional At Bill Benton Field Airport
(K79J)

South Alabama Regional At Bill Benton Field Airport Diagram
No Airport Diagram Available

FAA data valid effective January 08, 2015 - March 05, 2015 (unless otherwise noted).

 
 
 
 
 
 
 
 
 
 
 
 
 
 

Current Aviation Weather for South Alabama Regional At Bill Benton Field Airport (K79J)

The most recent METAR observation for K79J was updated at: 2010
METAR Summary (Translated METAR)
K79J
281956Z AUTO 12008KT 10SM OVC023 17/07 A3038 RMK AO2 SLP286 T01670067
K0J4
281958Z AUTO 09013G18KT 10SM BKN024 OVC032 14/08 A3039 RMK AO2 SLP291 T01440078 $
(16.5 nm SE from K79J)
KEDN
281955Z AUTO 10011G15KT 10SM OVC019 12/07 A3039 RMK AO2
(25.3 nm SE from K79J)
TAF
No TAF information found within 50 nm of KCEW
  Airport Weather Conditions for K79J

 Current Weather at 79J
62° F
Overcast
Southeast winds at 9.2 mph
79J NOAA Radar

Pressure: 30.38 in
Humidity: 52%
Wind: Southeast at 9.2 MPH (8 KT)
Dew Point: 44.1°F
Visibility: 10.00 mi


Airport Weather Forecast for K79J

Translated METAR and TAF for KCEW
Translated METAR for KCEW (2047 UTC 28 February 2015)
found at http://aviationweather.gov/adds/metars/
 
METAR text: KCEW 281953Z AUTO 08010G17KT 10SM OVC020 15/08 A3038 RMK AO2 SLP288 T01500083
Conditions at: KCEW (CRESTVIEW , FL, US) observed 1953 UTC 28 February 2015
Temperature: 15.0°C (59°F)
Dewpoint: 8.3°C (47°F) [RH = 64%]
Pressure (altimeter): 30.38 inches Hg (1028.9 mb)
[Sea-level pressure: 1028.8 mb]
Winds: from the E (80 degrees) at 12 MPH (10 knots; 5.2 m/s)
gusting to 20 MPH (17 knots; 8.8 m/s)
Visibility: 10 or more miles (16+ km)
Ceiling: 2000 feet AGL
Clouds: overcast cloud deck at 2000 feet AGL
Weather: automated observation with no human augmentation;
there may or may not be significant weather present at this time
Translated TAF for KCEW

There is no translated TAF available for this airport

Find All Airport Services Find A Hotel Find A Rental Car Find A Golf Course Find A Restaurant $100 Hamburger



FBO's on the Field
FBO Company Facility Photos Services Transportation Aviation Fuel Prices: Prices include tax
Catering Weather Repair Courtesy Rental Type 100LL JetA JetA+ MOGAS 8087
 
South Alabama Regional Airport

This FBO has not yet been rated
FS:Phillips 66
Last Updated: Feb-23
Login to update fuel prices
SS:
Contact South Alabama Regional AirportMore FBO Information
 
Add another FBO Facility Photos Catering Weather Repair Courtesy Rental Type 100LL JetA JetA+ MOGAS 8087
Services Transportation Aviation Fuel Prices: Prices include tax


model-print
model-print
model-print
model-print